sensor_id;sensor_type;location;lat;lon;timestamp;P1;durP1;ratioP1;P2;durP2;ratioP2
2009;SDS011;1008;47.404;8.502;2023-07-02T00:01:45;2.47;;;2.27;;
2009;SDS011;1008;47.404;8.502;2023-07-02T00:04:12;3.90;;;2.30;;
2009;SDS011;1008;47.404;8.502;2023-07-02T00:06:41;3.70;;;1.97;;
2009;SDS011;1008;47.404;8.502;2023-07-02T00:09:08;2.20;;;2.00;;
2009;SDS011;1008;47.404;8.502;2023-07-02T00:11:35;4.20;;;2.40;;
2009;SDS011;1008;47.404;8.502;2023-07-02T00:14:03;2.60;;;2.23;;
2009;SDS011;1008;47.404;8.502;2023-07-02T00:16:31;2.43;;;2.10;;
2009;SDS011;1008;47.404;8.502;2023-07-02T00:18:58;2.30;;;2.10;;
2009;SDS011;1008;47.404;8.502;2023-07-02T00:21:25;3.07;;;2.20;;
2009;SDS011;1008;47.404;8.502;2023-07-02T00:23:53;2.30;;;2.10;;
2009;SDS011;1008;47.404;8.502;2023-07-02T00:26:22;3.50;;;2.40;;
2009;SDS011;1008;47.404;8.502;2023-07-02T00:28:49;2.80;;;2.20;;
2009;SDS011;1008;47.404;8.502;2023-07-02T00:31:16;2.97;;;2.30;;
2009;SDS011;1008;47.404;8.502;2023-07-02T00:33:44;2.70;;;2.20;;
2009;SDS011;1008;47.404;8.502;2023-07-02T00:36:11;1.73;;;1.60;;
2009;SDS011;1008;47.404;8.502;2023-07-02T00:38:40;2.40;;;2.07;;
2009;SDS011;1008;47.404;8.502;2023-07-02T00:41:07;2.57;;;2.00;;
2009;SDS011;1008;47.404;8.502;2023-07-02T00:43:34;2.77;;;2.27;;
2009;SDS011;1008;47.404;8.502;2023-07-02T00:46:00;2.47;;;2.10;;
2009;SDS011;1008;47.404;8.502;2023-07-02T00:48:27;3.03;;;2.33;;
2009;SDS011;1008;47.404;8.502;2023-07-02T00:50:55;4.53;;;2.10;;
2009;SDS011;1008;47.404;8.502;2023-07-02T00:53:22;2.40;;;2.10;;
2009;SDS011;1008;47.404;8.502;2023-07-02T00:55:49;2.50;;;2.17;;
2009;SDS011;1008;47.404;8.502;2023-07-02T00:58:16;2.87;;;2.43;;
2009;SDS011;1008;47.404;8.502;2023-07-02T01:00:46;6.00;;;2.63;;
2009;SDS011;1008;47.404;8.502;2023-07-02T01:03:12;3.10;;;2.80;;
2009;SDS011;1008;47.404;8.502;2023-07-02T01:05:39;6.47;;;2.20;;
2009;SDS011;1008;47.404;8.502;2023-07-02T01:08:07;3.03;;;2.73;;
2009;SDS011;1008;47.404;8.502;2023-07-02T01:10:35;3.63;;;2.77;;
2009;SDS011;1008;47.404;8.502;2023-07-02T01:13:04;3.10;;;2.60;;
2009;SDS011;1008;47.404;8.502;2023-07-02T01:15:34;2.87;;;2.40;;
2009;SDS011;1008;47.404;8.502;2023-07-02T01:18:02;3.00;;;2.60;;
2009;SDS011;1008;47.404;8.502;2023-07-02T01:20:31;2.80;;;2.30;;
2009;SDS011;1008;47.404;8.502;2023-07-02T01:23:00;2.87;;;2.27;;
2009;SDS011;1008;47.404;8.502;2023-07-02T01:25:28;2.97;;;2.67;;
2009;SDS011;1008;47.404;8.502;2023-07-02T01:27:55;4.00;;;2.80;;
2009;SDS011;1008;47.404;8.502;2023-07-02T01:30:23;5.93;;;3.30;;
2009;SDS011;1008;47.404;8.502;2023-07-02T01:32:50;4.60;;;3.13;;
2009;SDS011;1008;47.404;8.502;2023-07-02T01:35:18;6.67;;;3.20;;
2009;SDS011;1008;47.404;8.502;2023-07-02T01:37:46;5.03;;;3.50;;
2009;SDS011;1008;47.404;8.502;2023-07-02T01:40:13;5.23;;;3.37;;
2009;SDS011;1008;47.404;8.502;2023-07-02T01:42:40;5.00;;;2.83;;
2009;SDS011;1008;47.404;8.502;2023-07-02T01:45:07;5.27;;;3.70;;
2009;SDS011;1008;47.404;8.502;2023-07-02T01:47:34;3.87;;;2.97;;
2009;SDS011;1008;47.404;8.502;2023-07-02T01:50:01;4.93;;;3.23;;
2009;SDS011;1008;47.404;8.502;2023-07-02T01:52:29;4.27;;;2.90;;
2009;SDS011;1008;47.404;8.502;2023-07-02T01:54:59;4.20;;;3.20;;
2009;SDS011;1008;47.404;8.502;2023-07-02T01:57:26;5.13;;;3.03;;
2009;SDS011;1008;47.404;8.502;2023-07-02T01:59:53;4.47;;;3.10;;
2009;SDS011;1008;47.404;8.502;2023-07-02T02:02:19;4.30;;;3.23;;
2009;SDS011;1008;47.404;8.502;2023-07-02T02:04:46;4.97;;;3.23;;
2009;SDS011;1008;47.404;8.502;2023-07-02T02:07:13;4.20;;;3.30;;
2009;SDS011;1008;47.404;8.502;2023-07-02T02:09:39;5.40;;;3.50;;
2009;SDS011;1008;47.404;8.502;2023-07-02T02:12:08;4.93;;;3.47;;
2009;SDS011;1008;47.404;8.502;2023-07-02T02:14:35;4.50;;;3.00;;
2009;SDS011;1008;47.404;8.502;2023-07-02T02:17:02;5.70;;;3.53;;
2009;SDS011;1008;47.404;8.502;2023-07-02T02:19:29;5.20;;;2.90;;
2009;SDS011;1008;47.404;8.502;2023-07-02T02:21:55;7.00;;;3.90;;
2009;SDS011;1008;47.404;8.502;2023-07-02T02:24:22;4.50;;;3.23;;
2009;SDS011;1008;47.404;8.502;2023-07-02T02:26:49;5.30;;;4.10;;
2009;SDS011;1008;47.404;8.502;2023-07-02T02:29:17;5.50;;;3.53;;
2009;SDS011;1008;47.404;8.502;2023-07-02T02:31:43;6.40;;;4.17;;
2009;SDS011;1008;47.404;8.502;2023-07-02T02:34:10;7.20;;;3.90;;
2009;SDS011;1008;47.404;8.502;2023-07-02T02:36:37;5.20;;;3.60;;
2009;SDS011;1008;47.404;8.502;2023-07-02T02:39:03;5.50;;;3.60;;
2009;SDS011;1008;47.404;8.502;2023-07-02T02:41:30;5.80;;;3.63;;
2009;SDS011;1008;47.404;8.502;2023-07-02T02:43:58;5.77;;;3.73;;
2009;SDS011;1008;47.404;8.502;2023-07-02T02:46:26;5.73;;;3.73;;
2009;SDS011;1008;47.404;8.502;2023-07-02T02:48:53;7.60;;;4.33;;
2009;SDS011;1008;47.404;8.502;2023-07-02T02:51:20;6.13;;;3.73;;
2009;SDS011;1008;47.404;8.502;2023-07-02T02:53:46;6.20;;;4.03;;
2009;SDS011;1008;47.404;8.502;2023-07-02T02:56:13;6.80;;;4.17;;
2009;SDS011;1008;47.404;8.502;2023-07-02T02:58:40;6.37;;;4.50;;
2009;SDS011;1008;47.404;8.502;2023-07-02T03:01:07;8.10;;;4.07;;
2009;SDS011;1008;47.404;8.502;2023-07-02T03:03:36;7.47;;;3.83;;
2009;SDS011;1008;47.404;8.502;2023-07-02T03:06:04;6.00;;;4.17;;
2009;SDS011;1008;47.404;8.502;2023-07-02T03:08:31;8.10;;;4.20;;
2009;SDS011;1008;47.404;8.502;2023-07-02T03:10:58;6.00;;;3.80;;
2009;SDS011;1008;47.404;8.502;2023-07-02T03:13:24;6.80;;;4.30;;
2009;SDS011;1008;47.404;8.502;2023-07-02T03:15:51;7.67;;;5.20;;
2009;SDS011;1008;47.404;8.502;2023-07-02T03:18:18;7.60;;;4.33;;
2009;SDS011;1008;47.404;8.502;2023-07-02T03:20:46;6.30;;;3.87;;
2009;SDS011;1008;47.404;8.502;2023-07-02T03:23:12;5.20;;;4.00;;
2009;SDS011;1008;47.404;8.502;2023-07-02T03:25:39;6.40;;;4.73;;
2009;SDS011;1008;47.404;8.502;2023-07-02T03:28:06;7.43;;;4.50;;
2009;SDS011;1008;47.404;8.502;2023-07-02T03:30:32;6.93;;;4.80;;
2009;SDS011;1008;47.404;8.502;2023-07-02T03:32:59;9.43;;;5.20;;
2009;SDS011;1008;47.404;8.502;2023-07-02T03:35:27;11.20;;;4.87;;
2009;SDS011;1008;47.404;8.502;2023-07-02T03:37:55;7.97;;;5.00;;
2009;SDS011;1008;47.404;8.502;2023-07-02T03:40:22;10.37;;;5.23;;
2009;SDS011;1008;47.404;8.502;2023-07-02T03:42:49;8.07;;;5.10;;
2009;SDS011;1008;47.404;8.502;2023-07-02T03:45:16;13.20;;;6.47;;
2009;SDS011;1008;47.404;8.502;2023-07-02T03:47:43;9.50;;;6.20;;
2009;SDS011;1008;47.404;8.502;2023-07-02T03:50:09;10.50;;;5.93;;
2009;SDS011;1008;47.404;8.502;2023-07-02T03:52:36;10.67;;;6.37;;
2009;SDS011;1008;47.404;8.502;2023-07-02T03:55:05;9.80;;;5.70;;
2009;SDS011;1008;47.404;8.502;2023-07-02T03:57:32;12.80;;;6.53;;
2009;SDS011;1008;47.404;8.502;2023-07-02T03:59:58;13.80;;;6.63;;
2009;SDS011;1008;47.404;8.502;2023-07-02T04:02:25;12.67;;;7.30;;
2009;SDS011;1008;47.404;8.502;2023-07-02T04:04:52;10.20;;;6.27;;
2009;SDS011;1008;47.404;8.502;2023-07-02T04:07:18;11.77;;;7.13;;
2009;SDS011;1008;47.404;8.502;2023-07-02T04:09:45;12.10;;;6.87;;
2009;SDS011;1008;47.404;8.502;2023-07-02T04:12:13;12.00;;;6.40;;
2009;SDS011;1008;47.404;8.502;2023-07-02T04:14:40;11.47;;;6.67;;
2009;SDS011;1008;47.404;8.502;2023-07-02T04:17:07;13.00;;;6.30;;
2009;SDS011;1008;47.404;8.502;2023-07-02T04:19:34;10.60;;;6.30;;
2009;SDS011;1008;47.404;8.502;2023-07-02T04:22:00;12.80;;;7.00;;
2009;SDS011;1008;47.404;8.502;2023-07-02T04:24:27;14.73;;;6.43;;
2009;SDS011;1008;47.404;8.502;2023-07-02T04:26:54;11.13;;;6.20;;
2009;SDS011;1008;47.404;8.502;2023-07-02T04:29:22;9.97;;;6.20;;
2009;SDS011;1008;47.404;8.502;2023-07-02T04:31:48;10.70;;;6.10;;
2009;SDS011;1008;47.404;8.502;2023-07-02T04:34:15;10.10;;;5.13;;
2009;SDS011;1008;47.404;8.502;2023-07-02T04:36:42;9.63;;;6.07;;
2009;SDS011;1008;47.404;8.502;2023-07-02T04:39:09;8.30;;;4.60;;
2009;SDS011;1008;47.404;8.502;2023-07-02T04:41:36;13.03;;;6.43;;
2009;SDS011;1008;47.404;8.502;2023-07-02T04:44:03;9.60;;;5.17;;
2009;SDS011;1008;47.404;8.502;2023-07-02T04:46:31;9.30;;;4.80;;
2009;SDS011;1008;47.404;8.502;2023-07-02T04:48:58;10.07;;;5.20;;
2009;SDS011;1008;47.404;8.502;2023-07-02T04:51:24;7.47;;;4.50;;
2009;SDS011;1008;47.404;8.502;2023-07-02T04:53:51;8.43;;;4.83;;
2009;SDS011;1008;47.404;8.502;2023-07-02T04:56:18;8.03;;;4.77;;
2009;SDS011;1008;47.404;8.502;2023-07-02T04:58:44;7.27;;;4.50;;
2009;SDS011;1008;47.404;8.502;2023-07-02T05:01:11;8.93;;;4.50;;
2009;SDS011;1008;47.404;8.502;2023-07-02T05:03:39;9.67;;;4.17;;
2009;SDS011;1008;47.404;8.502;2023-07-02T05:06:06;7.77;;;4.33;;
2009;SDS011;1008;47.404;8.502;2023-07-02T05:08:32;5.80;;;4.50;;
2009;SDS011;1008;47.404;8.502;2023-07-02T05:10:59;7.40;;;4.57;;
2009;SDS011;1008;47.404;8.502;2023-07-02T05:13:26;8.67;;;4.70;;
2009;SDS011;1008;47.404;8.502;2023-07-02T05:15:52;11.57;;;5.03;;
2009;SDS011;1008;47.404;8.502;2023-07-02T05:18:19;9.70;;;4.47;;
2009;SDS011;1008;47.404;8.502;2023-07-02T05:20:47;6.20;;;4.13;;
2009;SDS011;1008;47.404;8.502;2023-07-02T05:23:14;8.53;;;5.40;;
2009;SDS011;1008;47.404;8.502;2023-07-02T05:25:41;7.83;;;4.80;;
2009;SDS011;1008;47.404;8.502;2023-07-02T05:28:07;6.23;;;4.20;;
2009;SDS011;1008;47.404;8.502;2023-07-02T05:30:34;7.40;;;4.80;;
2009;SDS011;1008;47.404;8.502;2023-07-02T05:33:01;8.73;;;4.60;;
2009;SDS011;1008;47.404;8.502;2023-07-02T05:35:28;7.20;;;4.80;;
2009;SDS011;1008;47.404;8.502;2023-07-02T05:37:56;9.20;;;5.47;;
2009;SDS011;1008;47.404;8.502;2023-07-02T05:40:23;8.40;;;4.33;;
2009;SDS011;1008;47.404;8.502;2023-07-02T05:42:52;8.40;;;4.90;;
2009;SDS011;1008;47.404;8.502;2023-07-02T05:45:19;7.90;;;5.00;;
2009;SDS011;1008;47.404;8.502;2023-07-02T05:47:45;5.60;;;4.20;;
2009;SDS011;1008;47.404;8.502;2023-07-02T05:50:12;5.93;;;3.50;;
2009;SDS011;1008;47.404;8.502;2023-07-02T05:52:39;10.23;;;4.90;;
2009;SDS011;1008;47.404;8.502;2023-07-02T05:55:08;5.90;;;3.70;;
2009;SDS011;1008;47.404;8.502;2023-07-02T05:57:36;8.80;;;3.97;;
2009;SDS011;1008;47.404;8.502;2023-07-02T06:00:03;7.37;;;4.67;;
2009;SDS011;1008;47.404;8.502;2023-07-02T06:02:31;6.90;;;4.47;;
2009;SDS011;1008;47.404;8.502;2023-07-02T06:04:58;8.70;;;4.70;;
2009;SDS011;1008;47.404;8.502;2023-07-02T06:07:26;6.13;;;4.00;;
2009;SDS011;1008;47.404;8.502;2023-07-02T06:09:53;6.67;;;4.60;;
2009;SDS011;1008;47.404;8.502;2023-07-02T06:12:21;12.23;;;4.87;;
2009;SDS011;1008;47.404;8.502;2023-07-02T06:14:48;7.27;;;4.90;;
2009;SDS011;1008;47.404;8.502;2023-07-02T06:17:15;13.83;;;5.03;;
2009;SDS011;1008;47.404;8.502;2023-07-02T06:19:42;7.03;;;5.20;;
2009;SDS011;1008;47.404;8.502;2023-07-02T06:22:10;8.67;;;4.70;;
2009;SDS011;1008;47.404;8.502;2023-07-02T06:24:37;9.53;;;5.50;;
2009;SDS011;1008;47.404;8.502;2023-07-02T06:27:03;8.90;;;5.37;;
2009;SDS011;1008;47.404;8.502;2023-07-02T06:29:31;9.70;;;5.00;;
2009;SDS011;1008;47.404;8.502;2023-07-02T06:31:59;8.73;;;5.20;;
2009;SDS011;1008;47.404;8.502;2023-07-02T06:34:25;8.70;;;4.90;;
2009;SDS011;1008;47.404;8.502;2023-07-02T06:36:52;14.17;;;6.20;;
2009;SDS011;1008;47.404;8.502;2023-07-02T06:39:19;13.80;;;6.83;;
2009;SDS011;1008;47.404;8.502;2023-07-02T06:41:45;14.30;;;7.40;;
2009;SDS011;1008;47.404;8.502;2023-07-02T06:44:12;11.30;;;6.53;;
2009;SDS011;1008;47.404;8.502;2023-07-02T06:46:40;16.00;;;7.63;;
2009;SDS011;1008;47.404;8.502;2023-07-02T06:49:07;15.63;;;8.00;;
2009;SDS011;1008;47.404;8.502;2023-07-02T06:51:34;14.70;;;8.10;;
2009;SDS011;1008;47.404;8.502;2023-07-02T06:54:01;19.80;;;8.80;;
2009;SDS011;1008;47.404;8.502;2023-07-02T06:56:27;17.37;;;9.13;;
2009;SDS011;1008;47.404;8.502;2023-07-02T06:58:54;17.07;;;8.10;;
2009;SDS011;1008;47.404;8.502;2023-07-02T07:01:21;15.50;;;8.70;;
2009;SDS011;1008;47.404;8.502;2023-07-02T07:03:49;16.77;;;8.50;;
2009;SDS011;1008;47.404;8.502;2023-07-02T07:06:15;17.57;;;9.50;;
2009;SDS011;1008;47.404;8.502;2023-07-02T07:08:42;22.00;;;9.80;;
2009;SDS011;1008;47.404;8.502;2023-07-02T07:11:09;20.10;;;9.53;;
2009;SDS011;1008;47.404;8.502;2023-07-02T07:13:36;18.87;;;8.90;;
2009;SDS011;1008;47.404;8.502;2023-07-02T07:16:02;18.67;;;9.27;;
2009;SDS011;1008;47.404;8.502;2023-07-02T07:18:29;26.67;;;11.30;;
2009;SDS011;1008;47.404;8.502;2023-07-02T07:20:57;18.63;;;9.67;;
2009;SDS011;1008;47.404;8.502;2023-07-02T07:23:24;21.33;;;9.27;;
2009;SDS011;1008;47.404;8.502;2023-07-02T07:25:51;25.73;;;10.20;;
2009;SDS011;1008;47.404;8.502;2023-07-02T07:28:17;23.53;;;9.70;;
2009;SDS011;1008;47.404;8.502;2023-07-02T07:30:44;22.50;;;10.80;;
2009;SDS011;1008;47.404;8.502;2023-07-02T07:33:11;24.67;;;11.27;;
2009;SDS011;1008;47.404;8.502;2023-07-02T07:35:37;21.03;;;9.77;;
2009;SDS011;1008;47.404;8.502;2023-07-02T07:38:05;22.90;;;11.10;;
2009;SDS011;1008;47.404;8.502;2023-07-02T07:40:32;20.77;;;11.13;;
2009;SDS011;1008;47.404;8.502;2023-07-02T07:42:59;24.03;;;10.47;;
2009;SDS011;1008;47.404;8.502;2023-07-02T07:45:25;26.83;;;11.03;;
2009;SDS011;1008;47.404;8.502;2023-07-02T07:47:52;23.00;;;11.20;;
2009;SDS011;1008;47.404;8.502;2023-07-02T07:50:19;24.53;;;10.87;;
2009;SDS011;1008;47.404;8.502;2023-07-02T07:52:47;25.50;;;10.80;;
2009;SDS011;1008;47.404;8.502;2023-07-02T07:55:15;23.50;;;10.17;;
2009;SDS011;1008;47.404;8.502;2023-07-02T07:57:42;22.07;;;10.27;;
2009;SDS011;1008;47.404;8.502;2023-07-02T08:00:09;23.60;;;11.17;;
2009;SDS011;1008;47.404;8.502;2023-07-02T08:02:36;24.30;;;9.37;;
2009;SDS011;1008;47.404;8.502;2023-07-02T08:05:03;25.60;;;10.70;;
2009;SDS011;1008;47.404;8.502;2023-07-02T08:07:31;24.20;;;11.67;;
2009;SDS011;1008;47.404;8.502;2023-07-02T08:09:58;21.07;;;10.10;;
2009;SDS011;1008;47.404;8.502;2023-07-02T08:12:26;20.10;;;10.53;;
2009;SDS011;1008;47.404;8.502;2023-07-02T08:14:54;23.50;;;11.23;;
2009;SDS011;1008;47.404;8.502;2023-07-02T08:17:21;21.93;;;10.43;;
2009;SDS011;1008;47.404;8.502;2023-07-02T08:19:47;23.47;;;11.33;;
2009;SDS011;1008;47.404;8.502;2023-07-02T08:22:14;21.83;;;9.40;;
2009;SDS011;1008;47.404;8.502;2023-07-02T08:24:41;23.13;;;10.23;;
2009;SDS011;1008;47.404;8.502;2023-07-02T08:27:08;20.40;;;10.00;;
2009;SDS011;1008;47.404;8.502;2023-07-02T08:29:42;25.07;;;11.43;;
2009;SDS011;1008;47.404;8.502;2023-07-02T08:32:09;23.67;;;10.27;;
2009;SDS011;1008;47.404;8.502;2023-07-02T08:34:35;25.97;;;11.03;;
2009;SDS011;1008;47.404;8.502;2023-07-02T08:37:02;21.83;;;10.63;;
2009;SDS011;1008;47.404;8.502;2023-07-02T08:39:29;21.87;;;10.47;;
2009;SDS011;1008;47.404;8.502;2023-07-02T08:41:56;23.23;;;10.83;;
2009;SDS011;1008;47.404;8.502;2023-07-02T08:44:22;19.43;;;10.33;;
2009;SDS011;1008;47.404;8.502;2023-07-02T08:46:51;23.10;;;10.63;;
2009;SDS011;1008;47.404;8.502;2023-07-02T08:49:21;25.30;;;11.67;;
2009;SDS011;1008;47.404;8.502;2023-07-02T08:51:48;19.20;;;10.37;;
2009;SDS011;1008;47.404;8.502;2023-07-02T08:54:15;22.60;;;11.50;;
2009;SDS011;1008;47.404;8.502;2023-07-02T08:56:44;21.60;;;11.10;;
2009;SDS011;1008;47.404;8.502;2023-07-02T08:59:11;25.30;;;10.77;;
2009;SDS011;1008;47.404;8.502;2023-07-02T09:01:47;21.63;;;10.50;;
2009;SDS011;1008;47.404;8.502;2023-07-02T09:04:16;19.40;;;10.13;;
2009;SDS011;1008;47.404;8.502;2023-07-02T09:06:44;25.13;;;11.10;;
2009;SDS011;1008;47.404;8.502;2023-07-02T09:09:11;23.10;;;10.53;;
2009;SDS011;1008;47.404;8.502;2023-07-02T09:11:46;23.97;;;12.00;;
2009;SDS011;1008;47.404;8.502;2023-07-02T09:14:23;24.23;;;11.00;;
2009;SDS011;1008;47.404;8.502;2023-07-02T09:16:50;24.30;;;11.50;;
2009;SDS011;1008;47.404;8.502;2023-07-02T09:19:29;19.77;;;10.60;;
2009;SDS011;1008;47.404;8.502;2023-07-02T09:21:57;23.17;;;11.07;;
2009;SDS011;1008;47.404;8.502;2023-07-02T09:24:26;22.33;;;10.03;;
2009;SDS011;1008;47.404;8.502;2023-07-02T09:26:54;25.40;;;11.10;;
2009;SDS011;1008;47.404;8.502;2023-07-02T09:29:23;20.80;;;11.00;;
2009;SDS011;1008;47.404;8.502;2023-07-02T09:31:53;22.30;;;11.27;;
2009;SDS011;1008;47.404;8.502;2023-07-02T09:34:25;23.83;;;11.07;;
2009;SDS011;1008;47.404;8.502;2023-07-02T09:36:54;28.73;;;13.33;;
2009;SDS011;1008;47.404;8.502;2023-07-02T09:39:25;22.30;;;11.83;;
2009;SDS011;1008;47.404;8.502;2023-07-02T09:41:54;23.57;;;11.90;;
2009;SDS011;1008;47.404;8.502;2023-07-02T09:44:22;30.27;;;12.70;;
2009;SDS011;1008;47.404;8.502;2023-07-02T09:46:53;23.33;;;10.60;;
2009;SDS011;1008;47.404;8.502;2023-07-02T09:49:26;24.70;;;11.40;;
2009;SDS011;1008;47.404;8.502;2023-07-02T09:51:59;26.30;;;12.37;;
2009;SDS011;1008;47.404;8.502;2023-07-02T09:54:26;26.00;;;12.00;;
2009;SDS011;1008;47.404;8.502;2023-07-02T09:56:53;28.67;;;12.83;;
2009;SDS011;1008;47.404;8.502;2023-07-02T09:59:20;28.60;;;13.77;;
2009;SDS011;1008;47.404;8.502;2023-07-02T10:01:47;27.07;;;13.67;;
2009;SDS011;1008;47.404;8.502;2023-07-02T10:04:14;27.10;;;12.80;;
2009;SDS011;1008;47.404;8.502;2023-07-02T10:06:46;32.03;;;12.73;;
2009;SDS011;1008;47.404;8.502;2023-07-02T10:09:14;26.57;;;12.77;;
2009;SDS011;1008;47.404;8.502;2023-07-02T10:11:42;24.83;;;12.63;;
2009;SDS011;1008;47.404;8.502;2023-07-02T10:14:09;24.20;;;11.33;;
2009;SDS011;1008;47.404;8.502;2023-07-02T10:16:48;31.67;;;11.90;;
2009;SDS011;1008;47.404;8.502;2023-07-02T10:19:15;23.87;;;11.50;;
2009;SDS011;1008;47.404;8.502;2023-07-02T10:21:45;26.47;;;10.77;;
2009;SDS011;1008;47.404;8.502;2023-07-02T10:24:15;23.00;;;11.20;;
2009;SDS011;1008;47.404;8.502;2023-07-02T10:26:53;20.83;;;11.37;;
2009;SDS011;1008;47.404;8.502;2023-07-02T10:29:21;24.00;;;11.00;;
2009;SDS011;1008;47.404;8.502;2023-07-02T10:31:48;20.13;;;10.57;;
2009;SDS011;1008;47.404;8.502;2023-07-02T10:34:15;19.70;;;10.83;;
2009;SDS011;1008;47.404;8.502;2023-07-02T10:36:42;22.20;;;11.03;;
2009;SDS011;1008;47.404;8.502;2023-07-02T10:39:09;23.23;;;11.87;;
2009;SDS011;1008;47.404;8.502;2023-07-02T10:41:37;21.93;;;11.20;;
2009;SDS011;1008;47.404;8.502;2023-07-02T10:44:06;23.20;;;10.57;;
2009;SDS011;1008;47.404;8.502;2023-07-02T10:46:33;22.53;;;10.83;;
2009;SDS011;1008;47.404;8.502;2023-07-02T10:49:00;20.70;;;11.33;;
2009;SDS011;1008;47.404;8.502;2023-07-02T10:51:26;22.93;;;10.83;;
2009;SDS011;1008;47.404;8.502;2023-07-02T10:53:57;19.20;;;10.13;;
2009;SDS011;1008;47.404;8.502;2023-07-02T10:56:24;17.87;;;9.80;;
2009;SDS011;1008;47.404;8.502;2023-07-02T10:58:53;19.40;;;10.23;;
2009;SDS011;1008;47.404;8.502;2023-07-02T11:01:23;20.53;;;10.70;;
2009;SDS011;1008;47.404;8.502;2023-07-02T11:03:58;19.90;;;10.47;;
2009;SDS011;1008;47.404;8.502;2023-07-02T11:06:25;20.80;;;10.73;;
2009;SDS011;1008;47.404;8.502;2023-07-02T11:08:53;21.43;;;10.97;;
2009;SDS011;1008;47.404;8.502;2023-07-02T11:11:20;17.07;;;10.10;;
2009;SDS011;1008;47.404;8.502;2023-07-02T11:13:48;19.67;;;9.63;;
2009;SDS011;1008;47.404;8.502;2023-07-02T11:16:20;18.57;;;9.70;;
2009;SDS011;1008;47.404;8.502;2023-07-02T11:18:50;19.57;;;10.13;;
2009;SDS011;1008;47.404;8.502;2023-07-02T11:21:18;18.60;;;10.20;;
2009;SDS011;1008;47.404;8.502;2023-07-02T11:23:44;19.60;;;10.07;;
2009;SDS011;1008;47.404;8.502;2023-07-02T11:26:11;17.23;;;9.70;;
2009;SDS011;1008;47.404;8.502;2023-07-02T11:28:47;14.37;;;8.30;;
2009;SDS011;1008;47.404;8.502;2023-07-02T11:31:25;18.40;;;10.30;;
2009;SDS011;1008;47.404;8.502;2023-07-02T11:33:52;18.47;;;10.23;;
2009;SDS011;1008;47.404;8.502;2023-07-02T11:36:19;15.23;;;9.60;;
2009;SDS011;1008;47.404;8.502;2023-07-02T11:38:48;19.03;;;9.10;;
2009;SDS011;1008;47.404;8.502;2023-07-02T11:41:15;15.53;;;8.50;;
2009;SDS011;1008;47.404;8.502;2023-07-02T11:43:43;16.33;;;8.50;;
2009;SDS011;1008;47.404;8.502;2023-07-02T11:46:10;15.73;;;8.07;;
2009;SDS011;1008;47.404;8.502;2023-07-02T11:48:38;16.43;;;8.00;;
2009;SDS011;1008;47.404;8.502;2023-07-02T11:51:04;12.20;;;7.60;;
2009;SDS011;1008;47.404;8.502;2023-07-02T11:53:31;12.97;;;7.60;;
2009;SDS011;1008;47.404;8.502;2023-07-02T11:55:58;17.97;;;8.83;;
2009;SDS011;1008;47.404;8.502;2023-07-02T11:58:24;14.50;;;7.90;;
2009;SDS011;1008;47.404;8.502;2023-07-02T12:00:51;17.90;;;7.87;;
2009;SDS011;1008;47.404;8.502;2023-07-02T12:03:18;15.70;;;9.27;;
2009;SDS011;1008;47.404;8.502;2023-07-02T12:05:46;12.27;;;7.93;;
2009;SDS011;1008;47.404;8.502;2023-07-02T12:08:13;17.47;;;8.73;;
2009;SDS011;1008;47.404;8.502;2023-07-02T12:10:40;12.70;;;7.60;;
2009;SDS011;1008;47.404;8.502;2023-07-02T12:13:06;13.47;;;6.73;;
2009;SDS011;1008;47.404;8.502;2023-07-02T12:15:33;14.43;;;7.50;;
2009;SDS011;1008;47.404;8.502;2023-07-02T12:18:00;13.57;;;7.77;;
2009;SDS011;1008;47.404;8.502;2023-07-02T12:20:26;12.33;;;7.70;;
2009;SDS011;1008;47.404;8.502;2023-07-02T12:22:54;15.57;;;7.77;;
2009;SDS011;1008;47.404;8.502;2023-07-02T12:25:21;9.87;;;6.67;;
2009;SDS011;1008;47.404;8.502;2023-07-02T12:27:48;13.90;;;7.20;;
2009;SDS011;1008;47.404;8.502;2023-07-02T12:30:15;15.37;;;8.37;;
2009;SDS011;1008;47.404;8.502;2023-07-02T12:32:42;14.20;;;7.00;;
2009;SDS011;1008;47.404;8.502;2023-07-02T12:35:09;14.53;;;7.97;;
2009;SDS011;1008;47.404;8.502;2023-07-02T12:37:42;12.77;;;7.57;;
2009;SDS011;1008;47.404;8.502;2023-07-02T12:40:11;13.40;;;7.70;;
2009;SDS011;1008;47.404;8.502;2023-07-02T12:42:38;12.43;;;7.90;;
2009;SDS011;1008;47.404;8.502;2023-07-02T12:45:07;17.80;;;8.13;;
2009;SDS011;1008;47.404;8.502;2023-07-02T12:47:34;16.13;;;8.30;;
2009;SDS011;1008;47.404;8.502;2023-07-02T12:50:01;13.20;;;7.73;;
2009;SDS011;1008;47.404;8.502;2023-07-02T12:52:28;13.77;;;7.67;;
2009;SDS011;1008;47.404;8.502;2023-07-02T12:54:55;13.33;;;7.63;;
2009;SDS011;1008;47.404;8.502;2023-07-02T12:57:23;14.10;;;8.10;;
2009;SDS011;1008;47.404;8.502;2023-07-02T12:59:51;15.23;;;7.30;;
2009;SDS011;1008;47.404;8.502;2023-07-02T13:02:18;12.40;;;7.90;;
2009;SDS011;1008;47.404;8.502;2023-07-02T13:04:44;15.80;;;8.70;;
2009;SDS011;1008;47.404;8.502;2023-07-02T13:07:11;12.70;;;7.63;;
2009;SDS011;1008;47.404;8.502;2023-07-02T13:09:41;14.00;;;8.23;;
2009;SDS011;1008;47.404;8.502;2023-07-02T13:12:08;13.50;;;8.37;;
2009;SDS011;1008;47.404;8.502;2023-07-02T13:14:37;15.60;;;8.33;;
2009;SDS011;1008;47.404;8.502;2023-07-02T13:17:04;14.87;;;9.00;;
2009;SDS011;1008;47.404;8.502;2023-07-02T13:19:31;15.87;;;9.00;;
2009;SDS011;1008;47.404;8.502;2023-07-02T13:21:58;16.73;;;8.67;;
2009;SDS011;1008;47.404;8.502;2023-07-02T13:24:25;15.30;;;8.70;;
2009;SDS011;1008;47.404;8.502;2023-07-02T13:26:54;17.57;;;8.87;;
2009;SDS011;1008;47.404;8.502;2023-07-02T13:29:20;15.80;;;7.73;;
2009;SDS011;1008;47.404;8.502;2023-07-02T13:31:48;17.80;;;9.90;;
2009;SDS011;1008;47.404;8.502;2023-07-02T13:34:15;18.13;;;9.13;;
2009;SDS011;1008;47.404;8.502;2023-07-02T13:36:42;18.40;;;9.50;;
2009;SDS011;1008;47.404;8.502;2023-07-02T13:39:09;12.53;;;8.00;;
2009;SDS011;1008;47.404;8.502;2023-07-02T13:41:36;16.27;;;9.03;;
2009;SDS011;1008;47.404;8.502;2023-07-02T13:44:03;15.63;;;8.97;;
2009;SDS011;1008;47.404;8.502;2023-07-02T13:46:30;17.80;;;9.23;;
2009;SDS011;1008;47.404;8.502;2023-07-02T13:48:58;15.23;;;8.60;;
2009;SDS011;1008;47.404;8.502;2023-07-02T13:51:24;14.47;;;8.40;;
2009;SDS011;1008;47.404;8.502;2023-07-02T13:53:51;14.60;;;8.20;;
2009;SDS011;1008;47.404;8.502;2023-07-02T13:56:18;16.87;;;8.77;;
2009;SDS011;1008;47.404;8.502;2023-07-02T13:59:04;17.77;;;9.10;;
2009;SDS011;1008;47.404;8.502;2023-07-02T14:01:31;15.50;;;8.97;;
2009;SDS011;1008;47.404;8.502;2023-07-02T14:03:58;16.03;;;9.13;;
2009;SDS011;1008;47.404;8.502;2023-07-02T14:06:26;18.03;;;9.70;;
2009;SDS011;1008;47.404;8.502;2023-07-02T14:08:53;18.57;;;8.83;;
2009;SDS011;1008;47.404;8.502;2023-07-02T14:11:20;13.40;;;7.80;;
2009;SDS011;1008;47.404;8.502;2023-07-02T14:13:47;16.10;;;9.40;;
2009;SDS011;1008;47.404;8.502;2023-07-02T14:16:15;18.10;;;9.40;;
2009;SDS011;1008;47.404;8.502;2023-07-02T14:18:42;14.80;;;8.80;;
2009;SDS011;1008;47.404;8.502;2023-07-02T14:21:09;14.43;;;8.20;;
2009;SDS011;1008;47.404;8.502;2023-07-02T14:23:36;153.40;;;101.27;;
2009;SDS011;1008;47.404;8.502;2023-07-02T14:26:02;84.43;;;50.43;;
2009;SDS011;1008;47.404;8.502;2023-07-02T14:28:29;25.83;;;13.60;;
2009;SDS011;1008;47.404;8.502;2023-07-02T14:30:56;16.80;;;9.60;;
2009;SDS011;1008;47.404;8.502;2023-07-02T14:33:25;15.40;;;9.23;;
2009;SDS011;1008;47.404;8.502;2023-07-02T14:35:52;17.23;;;9.47;;
2009;SDS011;1008;47.404;8.502;2023-07-02T14:38:19;16.80;;;10.10;;
2009;SDS011;1008;47.404;8.502;2023-07-02T14:40:47;18.63;;;10.70;;
2009;SDS011;1008;47.404;8.502;2023-07-02T14:43:14;15.17;;;8.33;;
2009;SDS011;1008;47.404;8.502;2023-07-02T14:45:45;15.33;;;8.80;;
2009;SDS011;1008;47.404;8.502;2023-07-02T14:48:14;15.00;;;8.03;;
2009;SDS011;1008;47.404;8.502;2023-07-02T14:50:47;13.37;;;7.77;;
2009;SDS011;1008;47.404;8.502;2023-07-02T14:53:15;15.20;;;8.07;;
2009;SDS011;1008;47.404;8.502;2023-07-02T14:55:42;17.57;;;8.50;;
2009;SDS011;1008;47.404;8.502;2023-07-02T14:58:09;17.10;;;8.73;;
2009;SDS011;1008;47.404;8.502;2023-07-02T15:00:42;12.90;;;7.43;;
2009;SDS011;1008;47.404;8.502;2023-07-02T15:03:09;12.90;;;7.30;;
2009;SDS011;1008;47.404;8.502;2023-07-02T15:05:36;15.30;;;7.70;;